Whale Cove Airport
CYXN : now visible

Airfield :











YOU CAN JOIN US ON...

 
LOGIN :

Register | Disclaimer

   EN    FR    IT 

 









Legend :    VFR   Marginal VFR   IFR   Intensive IFR   Very Intensive IFR
Visi :
Ceiling :
>= 8 km
>= 3000ft
5 to 8 km
1000 to 3000 ft
1500m to 5 km
500 to 1000 ft
800 to 1500m
200 to 500 ft
< 800m
< 200 ft
Symbols :   Thunderstorms  Fog  Heavy snow  Heavy precipitations  Wind > 20 kt






- Airport Elevation : 40 ft
- IATA code : YXN


CYXN - Whale Cove

CURRENT METAR :
  • 192200Z 14008KT 15SM SCT220 11/06 A3016 RMK CC4 LAST STFD OBS/NEXT 201400Z SLP216

EXPIRED METARs :
  • 192100Z 12013KT 15SM SCT210 13/06 A3015 RMK CI3 SLP214
  • 192000Z 11014KT 15SM SCT150 SCT210 14/07 A3015 RMK AC3CC1 CC TR SLP212
  • 191900Z 11014KT 15SM FEW015 FEW210 13/07 A3015 RMK CF1CI2 CF TR SLP214
  • 191816Z 11011KT 15SM FEW210 13/06 A3015 RMK CC2 SLP213

TAF N/A
CZEG FIR / North America



MET'MAP, your aeronautical weather chart ! - Copyright ORBIFLY December 2007 - Disclaimer

ORBIFLY MET'MAP TEAM :

Programming & Development : Alexandra Zaïnal
Original concept : Baudouin d'Aumeries
Technical & hardware support : Manuel Goepfert
Assistance : Marc-Olivier Méhu




SOURCES & CREDITS :

   NOAA       Earth
Advisory